createdAt,value
2023-01-09T00:00:09.016Z,99272.94
2023-01-09T00:02:57.364Z,99272.69
2023-01-09T00:05:26.228Z,99271.20
2023-01-09T00:07:54.659Z,99264.63
2023-01-09T00:10:23.101Z,99262.25
2023-01-09T00:12:51.700Z,99260.33
2023-01-09T00:15:20.286Z,99265.63
2023-01-09T00:17:49.199Z,99267.53
2023-01-09T00:20:17.413Z,99267.05
2023-01-09T00:22:46.155Z,99261.41
2023-01-09T00:25:14.504Z,99259.10
2023-01-09T00:27:42.806Z,99262.23
2023-01-09T00:30:12.863Z,99262.20
2023-01-09T00:32:41.433Z,99263.61
2023-01-09T00:35:15.244Z,99261.98
2023-01-09T00:37:44.012Z,99259.70
2023-01-09T00:40:15.506Z,99264.30
2023-01-09T00:42:46.043Z,99261.40
2023-01-09T00:45:19.359Z,99254.94
2023-01-09T00:47:49.988Z,99253.35
2023-01-09T00:50:22.957Z,99257.45
2023-01-09T00:52:56.055Z,99252.14
2023-01-09T00:55:24.537Z,99254.48
2023-01-09T00:57:53.738Z,99246.48
2023-01-09T01:00:22.283Z,99236.86
2023-01-09T01:02:50.736Z,99235.38
2023-01-09T01:05:37.448Z,99240.02
2023-01-09T01:08:12.015Z,99245.95
2023-01-09T01:10:41.143Z,99242.73
2023-01-09T01:13:10.605Z,99235.13
2023-01-09T01:15:40.959Z,99242.39
2023-01-09T01:18:10.208Z,99244.91
2023-01-09T01:20:40.557Z,99243.33
2023-01-09T01:23:09.545Z,99241.70
2023-01-09T01:25:38.758Z,99239.02
2023-01-09T01:28:07.378Z,99237.75
2023-01-09T01:30:39.169Z,99238.15
2023-01-09T01:33:08.552Z,99234.61
2023-01-09T01:35:37.729Z,99230.72
2023-01-09T01:38:06.063Z,99230.58
2023-01-09T01:40:34.316Z,99230.15
2023-01-09T01:43:02.655Z,99228.67
2023-01-09T01:45:32.456Z,99222.33
2023-01-09T01:48:05.566Z,99226.48
2023-01-09T01:50:38.424Z,99221.53
2023-01-09T01:53:13.002Z,99224.65
2023-01-09T01:55:48.158Z,99217.92
2023-01-09T01:58:16.546Z,99211.23
2023-01-09T02:00:47.352Z,99205.84
2023-01-09T02:03:19.227Z,99202.05
2023-01-09T02:05:48.581Z,99194.88
2023-01-09T02:08:17.814Z,99198.38
2023-01-09T02:10:47.298Z,99195.69
2023-01-09T02:13:16.000Z,99192.76
2023-01-09T02:15:58.526Z,99183.64
2023-01-09T02:18:46.402Z,99181.53
2023-01-09T02:21:24.315Z,99181.32
2023-01-09T02:24:42.338Z,99179.84
2023-01-09T02:27:33.180Z,99177.80
2023-01-09T02:30:30.930Z,99173.23
2023-01-09T02:33:31.755Z,99166.59
2023-01-09T02:36:11.250Z,99160.65
2023-01-09T02:38:53.748Z,99155.26
2023-01-09T02:41:29.422Z,99154.39
2023-01-09T02:44:17.817Z,99152.46
2023-01-09T02:46:47.289Z,99160.27
2023-01-09T02:49:17.575Z,99160.46
2023-01-09T02:51:52.523Z,99156.90
2023-01-09T02:54:34.937Z,99157.58
2023-01-09T02:57:20.739Z,99157.58
2023-01-09T03:00:03.576Z,99161.65
2023-01-09T03:02:36.926Z,99157.77
2023-01-09T03:05:09.503Z,99152.48
2023-01-09T03:07:43.458Z,99145.26
2023-01-09T03:10:19.505Z,99141.88
2023-01-09T03:12:52.538Z,99136.27
2023-01-09T03:15:25.180Z,99137.84
2023-01-09T03:17:54.399Z,99140.10
2023-01-09T03:20:26.920Z,99145.52
2023-01-09T03:22:57.473Z,99143.85
2023-01-09T03:25:27.622Z,99137.11
2023-01-09T03:27:58.851Z,99132.55
2023-01-09T03:30:28.938Z,99133.04
2023-01-09T03:32:57.726Z,99133.62
2023-01-09T03:35:26.461Z,99132.84
2023-01-09T03:37:54.955Z,99126.86
2023-01-09T03:40:23.247Z,99124.14
2023-01-09T03:42:51.569Z,99120.02
2023-01-09T03:45:20.160Z,99115.73
2023-01-09T03:47:48.631Z,99115.13
2023-01-09T03:50:17.357Z,99113.13
2023-01-09T03:52:45.905Z,99112.78
2023-01-09T03:55:15.716Z,99111.40
2023-01-09T03:57:44.095Z,99114.88
2023-01-09T04:00:14.550Z,99112.74
2023-01-09T04:02:43.538Z,99113.52
2023-01-09T04:05:11.875Z,99115.41
2023-01-09T04:07:40.485Z,99116.19
2023-01-09T04:10:11.463Z,99115.83
2023-01-09T04:12:40.218Z,99119.52
2023-01-09T04:15:10.277Z,99121.39
2023-01-09T04:17:38.726Z,99122.85
2023-01-09T04:20:09.940Z,99118.89
2023-01-09T04:22:38.228Z,99116.88
2023-01-09T04:25:07.934Z,99110.77
2023-01-09T04:27:36.258Z,99109.77
2023-01-09T04:30:06.868Z,99105.89
2023-01-09T04:32:35.252Z,99100.64
2023-01-09T04:35:05.380Z,99096.63
2023-01-09T04:37:35.981Z,99094.40
2023-01-09T04:40:07.354Z,99094.20
2023-01-09T04:42:35.652Z,99093.46
2023-01-09T04:45:04.868Z,99090.09
2023-01-09T04:47:33.742Z,99087.64
2023-01-09T04:50:02.392Z,99086.49
2023-01-09T04:52:30.988Z,99084.84
2023-01-09T04:54:59.287Z,99086.27
2023-01-09T04:57:27.932Z,99090.73
2023-01-09T04:59:56.251Z,99085.90
2023-01-09T05:02:24.575Z,99082.80
2023-01-09T05:04:53.179Z,99077.66
2023-01-09T05:07:22.316Z,99071.70
2023-01-09T05:09:50.716Z,99068.13
2023-01-09T05:12:19.076Z,99065.32
2023-01-09T05:14:47.400Z,99058.96
2023-01-09T05:17:15.625Z,99054.18
2023-01-09T05:19:44.991Z,99046.81
2023-01-09T05:22:13.617Z,99047.89
2023-01-09T05:24:42.100Z,99039.69
2023-01-09T05:27:10.384Z,99037.45
2023-01-09T05:29:38.824Z,99029.73
2023-01-09T05:32:07.130Z,99026.77
2023-01-09T05:34:35.476Z,99028.34
2023-01-09T05:37:04.003Z,99022.83
2023-01-09T05:39:32.503Z,99020.30
2023-01-09T05:42:00.799Z,99021.73
2023-01-09T05:44:29.067Z,99029.23
2023-01-09T05:46:57.305Z,99027.50
2023-01-09T05:49:25.702Z,99019.17
2023-01-09T05:51:53.963Z,99012.81
2023-01-09T05:54:22.457Z,99013.38
2023-01-09T05:56:50.773Z,99009.42
2023-01-09T05:59:19.489Z,99013.81
2023-01-09T06:01:48.703Z,99016.11
2023-01-09T06:04:17.429Z,99019.13
2023-01-09T06:06:45.686Z,99014.02
2023-01-09T06:09:14.138Z,99007.33
2023-01-09T06:11:42.564Z,99010.41
2023-01-09T06:14:10.825Z,99011.63
2023-01-09T06:16:39.128Z,99003.66
2023-01-09T06:19:07.714Z,99002.89
2023-01-09T06:21:36.973Z,99002.42
2023-01-09T06:24:07.032Z,98996.58
2023-01-09T06:26:35.387Z,98992.14
2023-01-09T06:29:03.820Z,98983.70
2023-01-09T06:31:32.872Z,98987.70
2023-01-09T06:34:01.501Z,98993.73
2023-01-09T06:36:29.966Z,98989.76
2023-01-09T06:38:58.421Z,98991.45
2023-01-09T06:41:27.353Z,98989.61
2023-01-09T06:43:55.766Z,98993.39
2023-01-09T06:46:24.138Z,98995.71
2023-01-09T06:48:52.540Z,98997.36
2023-01-09T06:51:20.873Z,98994.20
2023-01-09T06:53:49.733Z,98991.61
2023-01-09T06:56:19.379Z,98991.60
2023-01-09T06:58:48.062Z,98987.91
2023-01-09T07:01:16.554Z,98994.73
2023-01-09T07:03:44.995Z,98989.98
2023-01-09T07:06:13.648Z,98990.55
2023-01-09T07:08:41.997Z,98988.27
2023-01-09T07:11:10.347Z,98991.23
2023-01-09T07:13:38.972Z,98990.20
2023-01-09T07:16:08.463Z,98989.41
2023-01-09T07:18:36.815Z,98991.85
2023-01-09T07:21:06.967Z,98990.90
2023-01-09T07:23:35.317Z,98989.01
2023-01-09T07:26:04.480Z,98990.75
2023-01-09T07:28:32.877Z,98988.11
2023-01-09T07:31:01.995Z,98983.09
2023-01-09T07:33:30.519Z,98985.23
2023-01-09T07:36:01.960Z,98980.66
2023-01-09T07:38:31.535Z,98982.84
2023-01-09T07:41:00.254Z,98978.44
2023-01-09T07:43:28.978Z,98978.67
2023-01-09T07:45:57.563Z,98987.02
2023-01-09T07:48:26.020Z,98984.20
2023-01-09T07:50:55.069Z,98980.45
2023-01-09T07:53:23.450Z,98988.04
2023-01-09T07:55:51.949Z,98990.48
2023-01-09T07:58:20.313Z,98979.05
2023-01-09T08:00:49.760Z,98981.84
2023-01-09T08:03:18.678Z,98978.00
2023-01-09T08:05:47.010Z,98982.88
2023-01-09T08:08:15.293Z,98982.41
2023-01-09T08:10:43.744Z,98986.90
2023-01-09T08:13:12.237Z,98985.71
2023-01-09T08:15:41.099Z,98982.87
2023-01-09T08:18:09.816Z,98983.95
2023-01-09T08:20:38.175Z,98979.14
2023-01-09T08:23:06.516Z,98985.80
2023-01-09T08:25:34.899Z,98985.50
2023-01-09T08:28:05.651Z,98978.55
2023-01-09T08:30:33.933Z,98983.27
2023-01-09T08:33:02.307Z,98982.05
2023-01-09T08:35:31.250Z,98979.25
2023-01-09T08:38:00.381Z,98977.62
2023-01-09T08:40:28.851Z,98975.17
2023-01-09T08:43:15.683Z,98972.98
2023-01-09T08:46:14.763Z,98972.53
2023-01-09T08:48:43.697Z,98970.30
2023-01-09T08:51:12.175Z,98962.95
2023-01-09T08:53:41.023Z,98963.56
2023-01-09T08:56:09.660Z,98961.68
2023-01-09T08:58:38.102Z,98957.33
2023-01-09T09:01:08.154Z,98957.69
2023-01-09T09:03:36.476Z,98956.88
2023-01-09T09:06:08.531Z,98947.64
2023-01-09T09:08:37.068Z,98940.96
2023-01-09T09:11:05.991Z,98942.23
2023-01-09T09:13:34.857Z,98947.41
2023-01-09T09:16:10.239Z,98951.03
2023-01-09T09:18:38.683Z,98947.27
2023-01-09T09:21:07.144Z,98943.96
2023-01-09T09:23:35.423Z,98950.92
2023-01-09T09:26:04.205Z,98945.86
2023-01-09T09:28:32.539Z,98952.88
2023-01-09T09:31:00.995Z,98947.41
2023-01-09T09:33:29.776Z,98943.50
2023-01-09T09:35:59.955Z,98947.14
2023-01-09T09:38:28.560Z,98940.88
2023-01-09T09:41:37.962Z,98938.05
2023-01-09T09:44:38.076Z,98949.33
2023-01-09T09:47:18.522Z,98950.92
2023-01-09T09:49:59.907Z,98946.08
2023-01-09T09:52:37.602Z,98942.21
2023-01-09T09:55:17.578Z,98943.90
2023-01-09T09:57:48.073Z,98944.11
2023-01-09T10:00:21.064Z,98941.90
2023-01-09T10:02:55.591Z,98938.23
2023-01-09T10:05:27.952Z,98941.00
2023-01-09T10:08:14.896Z,98936.17
2023-01-09T10:10:50.891Z,98936.29
2023-01-09T10:13:42.041Z,98934.07
2023-01-09T10:16:28.249Z,98931.55
2023-01-09T10:19:08.445Z,98931.00
2023-01-09T10:21:42.362Z,98930.33
2023-01-09T10:24:32.665Z,98934.52
2023-01-09T10:27:09.804Z,98934.49
2023-01-09T10:29:48.026Z,98934.81
2023-01-09T10:32:35.751Z,98929.33
2023-01-09T10:35:22.724Z,98926.64
2023-01-09T10:37:55.587Z,98926.08
2023-01-09T10:40:29.316Z,98926.63
2023-01-09T10:43:02.019Z,98929.58
2023-01-09T10:45:32.410Z,98928.04
2023-01-09T10:48:05.849Z,98928.79
2023-01-09T10:50:39.569Z,98932.02
2023-01-09T10:53:19.766Z,98929.17
2023-01-09T10:55:51.638Z,98932.68
2023-01-09T10:58:21.831Z,98932.77
2023-01-09T11:00:51.344Z,98929.95
2023-01-09T11:03:22.666Z,98926.69
2023-01-09T11:05:53.538Z,98924.38
2023-01-09T11:08:27.607Z,98923.61
2023-01-09T11:10:58.033Z,98923.61
2023-01-09T11:13:29.081Z,98922.81
2023-01-09T11:16:07.233Z,98921.08
2023-01-09T11:18:40.282Z,98920.04
2023-01-09T11:21:30.760Z,98924.05
2023-01-09T11:24:26.706Z,98920.76
2023-01-09T11:27:22.636Z,98922.11
2023-01-09T11:30:21.711Z,98916.80
2023-01-09T11:32:50.153Z,98916.63
2023-01-09T11:35:26.727Z,98916.85
2023-01-09T11:38:14.998Z,98913.65
2023-01-09T11:40:49.509Z,98910.38
2023-01-09T11:43:34.059Z,98911.90
2023-01-09T11:46:05.619Z,98912.70
2023-01-09T11:48:39.706Z,98909.16
2023-01-09T11:51:20.660Z,98907.08
2023-01-09T11:54:06.901Z,98906.23
2023-01-09T11:56:37.499Z,98904.69
2023-01-09T11:59:12.316Z,98900.88
2023-01-09T12:01:58.236Z,98895.97
2023-01-09T12:04:33.564Z,98891.83
2023-01-09T12:07:54.764Z,98893.14
2023-01-09T12:10:42.497Z,98893.04
2023-01-09T12:13:21.577Z,98887.73
2023-01-09T12:15:58.323Z,98884.73
2023-01-09T12:18:44.235Z,98875.93
2023-01-09T12:21:25.152Z,98879.47
2023-01-09T12:24:10.713Z,98877.98
2023-01-09T12:26:48.553Z,98876.35
2023-01-09T12:29:39.214Z,98877.44
2023-01-09T12:32:23.573Z,98882.16
2023-01-09T12:35:02.840Z,98877.59
2023-01-09T12:37:58.570Z,98872.20
2023-01-09T12:40:41.027Z,98874.39
2023-01-09T12:43:19.657Z,98876.58
2023-01-09T12:46:00.731Z,98871.31
2023-01-09T12:48:50.270Z,98862.33
2023-01-09T12:51:30.987Z,98866.60
2023-01-09T12:54:05.497Z,98865.67
2023-01-09T12:56:38.099Z,98861.75
2023-01-09T12:59:17.647Z,98859.42
2023-01-09T13:01:48.555Z,98862.41
2023-01-09T13:04:23.976Z,98868.82
2023-01-09T13:07:00.536Z,98865.94
2023-01-09T13:09:38.158Z,98873.36
2023-01-09T13:12:11.938Z,98873.58
2023-01-09T13:14:53.311Z,98879.31
2023-01-09T13:17:27.911Z,98882.94
2023-01-09T13:19:56.440Z,98881.84
2023-01-09T13:22:28.358Z,98883.23
2023-01-09T13:25:32.168Z,98875.37
2023-01-09T13:28:04.858Z,98874.82
2023-01-09T13:30:50.445Z,98876.83
2023-01-09T13:33:23.641Z,98877.30
2023-01-09T13:35:52.798Z,98876.84
2023-01-09T13:38:23.613Z,98877.17
2023-01-09T13:41:20.420Z,98879.95
2023-01-09T13:43:57.895Z,98892.21
2023-01-09T13:46:38.925Z,98902.46
2023-01-09T13:49:28.584Z,98905.02
2023-01-09T13:52:00.540Z,98901.50
2023-01-09T13:55:20.712Z,98905.83
2023-01-09T13:58:26.311Z,98912.53
2023-01-09T14:00:58.911Z,98916.45
2023-01-09T14:03:32.217Z,98921.42
2023-01-09T14:06:19.045Z,98924.01
2023-01-09T14:09:04.468Z,98933.23
2023-01-09T14:11:33.171Z,98933.07
2023-01-09T14:14:06.262Z,98934.25
2023-01-09T14:16:37.621Z,98942.84
2023-01-09T14:19:20.465Z,98947.60
2023-01-09T14:21:53.083Z,98949.25
2023-01-09T14:24:26.580Z,98955.33
2023-01-09T14:26:57.710Z,98963.35
2023-01-09T14:29:42.689Z,98964.69
2023-01-09T14:32:43.200Z,98969.23
2023-01-09T14:35:17.840Z,98973.21
2023-01-09T14:37:55.349Z,98978.04
2023-01-09T14:40:23.756Z,98980.17
2023-01-09T14:42:57.918Z,98979.39
2023-01-09T14:45:27.506Z,98979.96
2023-01-09T14:48:00.197Z,98980.00
2023-01-09T14:50:31.699Z,98983.17
2023-01-09T14:53:06.258Z,98989.23
2023-01-09T14:55:43.071Z,98992.77
2023-01-09T14:58:18.884Z,98999.70
2023-01-09T15:00:50.991Z,99001.89
2023-01-09T15:03:21.552Z,99002.13
2023-01-09T15:05:52.363Z,99005.40
2023-01-09T15:08:24.948Z,99009.74
2023-01-09T15:10:56.840Z,99012.03
2023-01-09T15:13:31.288Z,99015.80
2023-01-09T15:16:02.406Z,99024.71
2023-01-09T15:18:41.016Z,99032.13
2023-01-09T15:21:19.569Z,99035.83
2023-01-09T15:23:48.088Z,99037.97
2023-01-09T15:26:25.803Z,99041.83
2023-01-09T15:29:01.849Z,99048.12
2023-01-09T15:31:30.627Z,99052.20
2023-01-09T15:34:02.875Z,99053.73
2023-01-09T15:36:31.469Z,99053.70
2023-01-09T15:39:00.725Z,99057.95
2023-01-09T15:41:49.842Z,99064.14
2023-01-09T15:44:29.599Z,99069.70
2023-01-09T15:47:00.505Z,99076.23
2023-01-09T15:49:29.663Z,99075.36
2023-01-09T15:51:58.515Z,99085.56
2023-01-09T15:54:29.930Z,99086.64
2023-01-09T15:57:34.674Z,99088.00
2023-01-09T16:00:31.252Z,99090.05
2023-01-09T16:03:10.170Z,99094.15
2023-01-09T16:05:43.560Z,99097.25
2023-01-09T16:08:28.963Z,99097.67
2023-01-09T16:11:04.320Z,99098.13
2023-01-09T16:13:42.426Z,99106.81
2023-01-09T16:16:12.245Z,99111.89
2023-01-09T16:18:51.392Z,99116.02
2023-01-09T16:21:31.101Z,99110.61
2023-01-09T16:24:02.893Z,99113.12
2023-01-09T16:26:31.869Z,99114.46
2023-01-09T16:29:27.287Z,99117.59
2023-01-09T16:32:03.135Z,99116.33
2023-01-09T16:34:33.177Z,99115.42
2023-01-09T16:37:02.386Z,99118.86
2023-01-09T16:39:31.425Z,99120.45
2023-01-09T16:42:18.742Z,99121.11
2023-01-09T16:44:47.097Z,99123.83
2023-01-09T16:47:15.484Z,99124.98
2023-01-09T16:49:43.826Z,99131.66
2023-01-09T16:52:17.198Z,99136.31
2023-01-09T16:54:46.805Z,99144.57
2023-01-09T16:57:18.271Z,99153.12
2023-01-09T16:59:47.396Z,99158.85
2023-01-09T17:02:19.434Z,99158.10
2023-01-09T17:04:47.885Z,99161.36
2023-01-09T17:07:18.681Z,99166.50
2023-01-09T17:09:47.939Z,99169.54
2023-01-09T17:12:20.031Z,99163.74
2023-01-09T17:14:49.028Z,99162.89
2023-01-09T17:17:18.691Z,99152.82
2023-01-09T17:19:47.326Z,99152.87
2023-01-09T17:22:15.907Z,99157.11
2023-01-09T17:25:02.581Z,99161.06
2023-01-09T17:27:52.759Z,99163.16
2023-01-09T17:30:21.999Z,99167.65
2023-01-09T17:32:51.311Z,99168.72
2023-01-09T17:35:19.929Z,99177.02
2023-01-09T17:37:48.618Z,99182.16
2023-01-09T17:40:21.277Z,99181.02
2023-01-09T17:42:48.945Z,99184.80
2023-01-09T17:45:17.457Z,99191.04
2023-01-09T17:47:45.843Z,99196.86
2023-01-09T17:50:19.074Z,99194.45
2023-01-09T17:52:47.816Z,99194.14
2023-01-09T17:55:16.286Z,99198.69
2023-01-09T17:57:44.905Z,99201.30
2023-01-09T18:00:24.523Z,99209.94
2023-01-09T18:02:53.269Z,99221.52
2023-01-09T18:05:22.417Z,99226.45
2023-01-09T18:07:51.097Z,99229.67
2023-01-09T18:10:22.919Z,99229.92
2023-01-09T18:12:53.234Z,99226.65
2023-01-09T18:15:23.827Z,99231.03
2023-01-09T18:17:52.773Z,99240.46
2023-01-09T18:20:21.081Z,99246.54
2023-01-09T18:22:49.451Z,99246.20
2023-01-09T18:25:18.115Z,99247.05
2023-01-09T18:27:46.354Z,99252.03
2023-01-09T18:30:15.011Z,99248.48
2023-01-09T18:32:43.351Z,99247.90
2023-01-09T18:35:12.304Z,99248.21
2023-01-09T18:37:40.714Z,99245.77
2023-01-09T18:40:11.947Z,99243.11
2023-01-09T18:42:41.498Z,99244.90
2023-01-09T18:45:10.986Z,99252.17
2023-01-09T18:47:40.893Z,99259.06
2023-01-09T18:50:12.324Z,99269.22
2023-01-09T18:52:40.826Z,99268.65
2023-01-09T18:55:10.236Z,99271.06
2023-01-09T18:57:54.686Z,99266.58
2023-01-09T19:00:23.370Z,99274.31
2023-01-09T19:02:54.644Z,99284.50
2023-01-09T19:05:25.346Z,99294.93
2023-01-09T19:07:53.776Z,99296.89
2023-01-09T19:10:22.249Z,99296.58
2023-01-09T19:12:50.854Z,99295.01
2023-01-09T19:15:19.903Z,99288.14
2023-01-09T19:17:49.764Z,99284.82
2023-01-09T19:20:18.771Z,99288.16
2023-01-09T19:22:47.357Z,99288.92
2023-01-09T19:25:16.319Z,99292.36
2023-01-09T19:27:48.690Z,99301.70
2023-01-09T19:30:18.364Z,99307.31
2023-01-09T19:32:46.763Z,99313.40
2023-01-09T19:35:16.733Z,99314.90
2023-01-09T19:37:45.310Z,99315.95
2023-01-09T19:40:14.424Z,99321.38
2023-01-09T19:42:42.680Z,99325.63
2023-01-09T19:45:11.825Z,99334.11
2023-01-09T19:47:40.624Z,99342.16
2023-01-09T19:50:11.595Z,99350.48
2023-01-09T19:52:42.613Z,99348.21
2023-01-09T19:55:13.188Z,99348.28
2023-01-09T19:57:42.169Z,99351.91
2023-01-09T20:00:13.321Z,99349.55
2023-01-09T20:02:41.962Z,99352.45
2023-01-09T20:05:10.913Z,99356.29
2023-01-09T20:07:39.354Z,99353.52
2023-01-09T20:10:10.099Z,99357.88
2023-01-09T20:12:38.602Z,99359.48
2023-01-09T20:15:14.075Z,99357.45
2023-01-09T20:17:43.288Z,99357.02
2023-01-09T20:20:12.668Z,99356.36
2023-01-09T20:22:41.003Z,99357.67
2023-01-09T20:25:10.352Z,99361.78
2023-01-09T20:27:39.287Z,99369.59
2023-01-09T20:30:11.164Z,99377.30
2023-01-09T20:32:39.685Z,99387.45
2023-01-09T20:35:09.757Z,99396.11
2023-01-09T20:37:39.939Z,99398.45
2023-01-09T20:40:11.440Z,99393.57
2023-01-09T20:42:39.936Z,99394.48
2023-01-09T20:45:09.704Z,99399.21
2023-01-09T20:47:38.553Z,99398.80
2023-01-09T20:50:09.390Z,99401.92
2023-01-09T20:52:38.475Z,99404.39
2023-01-09T20:55:08.109Z,99411.45
2023-01-09T20:57:36.925Z,99406.84
2023-01-09T21:00:07.627Z,99419.56
2023-01-09T21:02:36.072Z,99421.26
2023-01-09T21:05:07.152Z,99422.70
2023-01-09T21:07:38.781Z,99419.34
2023-01-09T21:10:09.406Z,99422.48
2023-01-09T21:12:38.627Z,99426.98
2023-01-09T21:15:14.461Z,99427.27
2023-01-09T21:17:43.458Z,99426.11
2023-01-09T21:20:15.276Z,99428.73
2023-01-09T21:22:43.706Z,99428.80
2023-01-09T21:25:16.028Z,99432.90
2023-01-09T21:27:45.513Z,99445.41
2023-01-09T21:30:14.702Z,99452.52
2023-01-09T21:32:43.450Z,99457.86
2023-01-09T21:35:12.212Z,99463.84
2023-01-09T21:37:41.963Z,99466.33
2023-01-09T21:40:16.033Z,99464.86
2023-01-09T21:43:03.882Z,99467.48
2023-01-09T21:45:51.526Z,99472.36
2023-01-09T21:48:20.339Z,99484.80
2023-01-09T21:50:49.841Z,99484.73
2023-01-09T21:53:18.829Z,99483.62
2023-01-09T21:55:47.117Z,99479.88
2023-01-09T21:58:16.686Z,99484.86
2023-01-09T22:00:45.224Z,99495.33
2023-01-09T22:03:18.224Z,99502.98
2023-01-09T22:05:47.525Z,99504.17
2023-01-09T22:08:16.064Z,99505.78
2023-01-09T22:10:45.123Z,99508.79
2023-01-09T22:13:17.024Z,99512.92
2023-01-09T22:15:46.785Z,99516.92
2023-01-09T22:18:15.121Z,99518.96
2023-01-09T22:20:45.251Z,99519.61
2023-01-09T22:23:14.098Z,99521.23
2023-01-09T22:25:42.372Z,99526.68
2023-01-09T22:28:10.839Z,99533.05
2023-01-09T22:30:41.265Z,99532.56
2023-01-09T22:33:10.553Z,99534.77
2023-01-09T22:35:40.563Z,99532.77
2023-01-09T22:38:10.290Z,99530.79
2023-01-09T22:40:39.563Z,99531.05
2023-01-09T22:43:07.984Z,99539.98
2023-01-09T22:45:36.570Z,99543.17
2023-01-09T22:48:06.078Z,99553.20
2023-01-09T22:50:34.558Z,99561.76
2023-01-09T22:53:03.110Z,99568.95
2023-01-09T22:55:31.849Z,99572.39
2023-01-09T22:58:00.233Z,99578.01
2023-01-09T23:00:28.683Z,99582.29
2023-01-09T23:02:57.253Z,99590.11
2023-01-09T23:05:25.953Z,99595.30
2023-01-09T23:07:54.204Z,99595.76
2023-01-09T23:10:22.604Z,99590.69
2023-01-09T23:12:50.946Z,99595.15
2023-01-09T23:15:19.397Z,99596.16
2023-01-09T23:17:47.967Z,99595.48
2023-01-09T23:20:16.969Z,99595.35
2023-01-09T23:22:45.501Z,99595.45
2023-01-09T23:25:15.608Z,99599.81
2023-01-09T23:27:44.210Z,99604.43
2023-01-09T23:30:14.007Z,99600.87
2023-01-09T23:32:43.557Z,99605.75
2023-01-09T23:35:12.048Z,99607.48
2023-01-09T23:37:40.416Z,99605.81
2023-01-09T23:40:11.307Z,99607.21
2023-01-09T23:43:06.482Z,99609.67
2023-01-09T23:45:35.927Z,99613.20
2023-01-09T23:48:06.321Z,99613.57
2023-01-09T23:50:35.034Z,99617.48
2023-01-09T23:53:03.447Z,99624.88
2023-01-09T23:55:32.123Z,99625.39
2023-01-09T23:58:00.804Z,99627.92
